Weather at Parks Air Force Base [CLOSED]

Public forecast

Using degrees Fahrenheit for public forecast. Weather courtesy of forecast.io.

Closest aviation weather report (METAR) to Parks Air Force Base

Closest report is Livermore Municipal Airport, 4.2 nm (7.8 km) ESE.

2024/05/30 17:53 (retrieved 23 minutes ago)

KLVK 301753Z 23006KT 10SM CLR 26/04 A2997 RMK AO2 SLP144 T02610044 10267 20106 58012

Closest aviation forecast (TAF) to Parks Air Force Base

Closest forecast is Livermore Municipal Airport, 4.2 nm (7.8 km) ESE.

2024/05/30 18:22 (retrieved 0 seconds ago)

TAF KLVK 301720Z 3018/3118 VRB05KT P6SM SKC FM302100 28012KT P6SM SKC FM310400 VRB03KT P6SM SKC